Time;durP1;ratioP1;P1;durP2;ratioP2;P2;SDS_P1;SDS_P2;PMS_P1;PMS_P2;Temp;Humidity;BMP_temperature;BMP_pressure;BME280_temperature;BME280_humidity;BME280_pressure;Samples;Min_cycle;Max_cycle;Signal;HPM_P1;HPM_P2
2022/03/30 00:03:12;;;;;;;;;;;19.00;53.10;;;;;;4938158;28;19948;-58
2022/03/30 00:05:38;;;;;;;;;;;19.00;53.10;;;;;;5007586;28;20337;-58
2022/03/30 00:08:04;;;;;;;;;;;18.90;53.00;;;;;;5006342;28;20395;-58
2022/03/30 00:10:29;;;;;;;;;;;19.00;53.10;;;;;;5006713;28;19918;-58
2022/03/30 00:12:56;;;;;;;;;;;18.90;53.70;;;;;;5006876;28;20374;-59
2022/03/30 00:15:22;;;;;;;;;;;19.00;53.10;;;;;;5005936;28;19914;-58
2022/03/30 00:17:47;;;;;;;;;;;18.90;53.00;;;;;;5006287;28;19925;-59
2022/03/30 00:20:13;;;;;;;;;;;18.90;53.10;;;;;;5005978;28;19921;-57
2022/03/30 00:22:40;;;;;;;;;;;18.90;53.00;;;;;;5006228;28;19918;-58
2022/03/30 00:25:09;;;;;;;;;;;18.90;53.10;;;;;;5006151;28;19955;-58
2022/03/30 00:27:34;;;;;;;;;;;18.90;53.10;;;;;;5005532;28;20005;-55
2022/03/30 00:30:00;;;;;;;;;;;18.90;53.10;;;;;;5006292;28;19996;-58
2022/03/30 00:32:25;;;;;;;;;;;18.90;53.10;;;;;;5006226;28;20015;-58
2022/03/30 00:34:51;;;;;;;;;;;18.90;53.20;;;;;;5007012;28;20379;-60
2022/03/30 00:37:16;;;;;;;;;;;18.80;53.10;;;;;;5007327;28;20493;-59
2022/03/30 00:39:42;;;;;;;;;;;18.80;53.10;;;;;;5006159;28;19940;-59
2022/03/30 00:42:17;;;;;;;;;;;18.90;53.20;;;;;;5007029;28;19918;-59
2022/03/30 00:44:42;;;;;;;;;;;18.80;53.10;;;;;;5006811;28;19914;-59
2022/03/30 00:47:14;;;;;;;;;;;18.80;53.20;;;;;;5006838;28;19914;-59
2022/03/30 00:49:40;;;;;;;;;;;18.80;53.20;;;;;;5006720;28;19913;-57
2022/03/30 00:52:05;;;;;;;;;;;18.80;53.10;;;;;;5005793;28;20385;-59
2022/03/30 00:54:30;;;;;;;;;;;18.80;53.20;;;;;;5006937;28;19917;-59
2022/03/30 00:56:56;;;;;;;;;;;18.80;53.10;;;;;;4988548;28;19914;-59
2022/03/30 00:59:22;;;;;;;;;;;18.80;53.10;;;;;;4988143;28;20366;-58
2022/03/30 01:01:47;;;;;;;;;;;18.80;53.20;;;;;;5005230;28;19925;-59
2022/03/30 01:04:13;;;;;;;;;;;18.80;53.10;;;;;;4988216;28;20549;-60
2022/03/30 01:06:38;;;;;;;;;;;18.80;53.10;;;;;;5005261;28;19914;-58
2022/03/30 01:09:04;;;;;;;;;;;18.80;53.10;;;;;;5006150;28;19920;-59
2022/03/30 01:11:30;;;;;;;;;;;18.80;53.10;;;;;;5005809;28;19917;-59
2022/03/30 01:13:55;;;;;;;;;;;18.80;53.00;;;;;;5005692;28;20353;-59
2022/03/30 01:16:23;;;;;;;;;;;18.80;53.00;;;;;;5004409;28;19914;-59
2022/03/30 01:18:48;;;;;;;;;;;18.80;53.00;;;;;;5005105;28;20015;-58
2022/03/30 01:21:15;;;;;;;;;;;18.80;53.00;;;;;;5005075;28;20294;-59
2022/03/30 01:23:40;;;;;;;;;;;18.80;53.00;;;;;;5005479;28;20426;-59
2022/03/30 01:26:06;;;;;;;;;;;18.80;53.00;;;;;;5004754;28;19921;-59
2022/03/30 01:28:31;;;;;;;;;;;18.70;53.00;;;;;;5004036;28;20407;-59
2022/03/30 01:33:44;;;;;;;;;;;18.70;53.00;;;;;;5004396;28;19971;-59
2022/03/30 01:36:10;;;;;;;;;;;18.80;53.10;;;;;;5005365;28;19913;-58
2022/03/30 01:38:35;;;;;;;;;;;18.70;53.10;;;;;;5004418;28;19919;-58
2022/03/30 01:41:01;;;;;;;;;;;18.70;53.10;;;;;;5005669;28;19940;-58
2022/03/30 01:43:28;;;;;;;;;;;18.70;53.70;;;;;;5004498;28;19941;-58
2022/03/30 01:45:54;;;;;;;;;;;18.70;53.20;;;;;;5005012;28;19913;-57
2022/03/30 01:48:19;;;;;;;;;;;18.70;53.20;;;;;;5004558;28;19940;-58
2022/03/30 01:50:44;;;;;;;;;;;18.70;53.20;;;;;;5004666;28;19921;-58
2022/03/30 01:53:10;;;;;;;;;;;18.70;53.20;;;;;;5005430;28;19987;-58
2022/03/30 01:55:35;;;;;;;;;;;18.60;53.10;;;;;;5004923;28;19921;-58
2022/03/30 01:58:01;;;;;;;;;;;18.60;53.20;;;;;;5005202;28;20363;-59
2022/03/30 02:00:27;;;;;;;;;;;18.60;53.20;;;;;;5004596;28;19914;-59
2022/03/30 02:02:52;;;;;;;;;;;18.60;53.20;;;;;;5004796;28;19928;-57
2022/03/30 02:05:18;;;;;;;;;;;18.70;53.30;;;;;;5005420;28;19914;-58
2022/03/30 02:07:44;;;;;;;;;;;18.60;53.30;;;;;;5004756;28;20294;-58
2022/03/30 02:10:09;;;;;;;;;;;18.60;53.20;;;;;;5004863;28;19923;-59
2022/03/30 02:12:35;;;;;;;;;;;18.60;53.30;;;;;;5005084;28;19940;-58
2022/03/30 02:15:01;;;;;;;;;;;18.60;53.20;;;;;;4990619;28;19960;-59
2022/03/30 02:17:27;;;;;;;;;;;18.60;53.30;;;;;;5004513;28;19921;-58
2022/03/30 02:19:53;;;;;;;;;;;18.60;53.30;;;;;;5004006;28;19913;-56
2022/03/30 02:22:19;;;;;;;;;;;18.60;53.20;;;;;;5004756;28;19918;-59
2022/03/30 02:24:44;;;;;;;;;;;18.60;53.20;;;;;;5004118;28;19963;-57
2022/03/30 02:27:09;;;;;;;;;;;18.60;53.30;;;;;;5004268;28;19924;-59
2022/03/30 02:29:35;;;;;;;;;;;18.60;53.30;;;;;;5004029;28;20448;-59
2022/03/30 02:32:01;;;;;;;;;;;18.60;53.30;;;;;;5004634;28;19987;-59
2022/03/30 02:34:27;;;;;;;;;;;18.60;53.20;;;;;;5004530;28;20614;-58
2022/03/30 02:36:52;;;;;;;;;;;18.60;53.30;;;;;;5005377;28;19920;-59
2022/03/30 02:39:18;;;;;;;;;;;18.60;53.30;;;;;;5008227;28;20382;-59
2022/03/30 02:41:44;;;;;;;;;;;18.50;53.20;;;;;;5008962;28;19925;-54
2022/03/30 02:44:09;;;;;;;;;;;18.60;53.20;;;;;;5008550;28;20000;-59
2022/03/30 02:46:35;;;;;;;;;;;18.50;53.30;;;;;;5008393;28;20029;-57
2022/03/30 02:49:00;;;;;;;;;;;18.50;53.20;;;;;;5008381;28;19920;-59
2022/03/30 02:51:27;;;;;;;;;;;18.50;53.20;;;;;;5008664;28;19918;-58
2022/03/30 02:53:53;;;;;;;;;;;18.50;53.30;;;;;;5008100;28;19957;-58
2022/03/30 02:56:18;;;;;;;;;;;18.50;53.20;;;;;;5008454;28;20075;-59
2022/03/30 02:58:44;;;;;;;;;;;18.50;53.30;;;;;;5008094;28;20619;-58
2022/03/30 03:01:09;;;;;;;;;;;18.50;53.20;;;;;;5006851;28;19913;-58
2022/03/30 03:03:35;;;;;;;;;;;18.50;53.20;;;;;;5008156;28;19917;-58
2022/03/30 03:06:00;;;;;;;;;;;18.50;53.20;;;;;;5008647;28;19921;-58
2022/03/30 03:08:26;;;;;;;;;;;18.50;53.30;;;;;;5007887;28;19913;-58
2022/03/30 03:10:51;;;;;;;;;;;18.50;53.20;;;;;;5008140;28;19963;-59
2022/03/30 03:13:17;;;;;;;;;;;18.50;53.20;;;;;;5008091;28;20024;-58
2022/03/30 03:15:42;;;;;;;;;;;18.50;53.30;;;;;;5007757;28;19921;-59
2022/03/30 03:18:08;;;;;;;;;;;18.40;53.20;;;;;;5007094;28;19957;-59
2022/03/30 03:20:33;;;;;;;;;;;18.50;53.30;;;;;;5007760;28;19921;-58
2022/03/30 03:23:01;;;;;;;;;;;18.50;53.20;;;;;;5007808;28;20407;-59
2022/03/30 03:25:29;;;;;;;;;;;18.50;53.10;;;;;;5007815;28;19991;-59
2022/03/30 03:27:55;;;;;;;;;;;18.50;53.10;;;;;;5007451;28;19983;-58
2022/03/30 03:30:20;;;;;;;;;;;18.50;53.10;;;;;;5007254;28;20371;-59
2022/03/30 03:32:46;;;;;;;;;;;18.50;53.10;;;;;;5000302;28;19998;-59
2022/03/30 03:35:12;;;;;;;;;;;18.50;53.10;;;;;;5006432;28;19914;-59
2022/03/30 03:37:39;;;;;;;;;;;18.50;53.20;;;;;;5008565;28;20243;-59
2022/03/30 03:40:05;;;;;;;;;;;18.50;53.20;;;;;;5007928;28;19921;-59
2022/03/30 03:42:31;;;;;;;;;;;18.50;53.80;;;;;;5007441;28;19922;-59
2022/03/30 03:44:57;;;;;;;;;;;18.50;53.20;;;;;;5006962;28;19920;-59
2022/03/30 03:47:22;;;;;;;;;;;18.50;53.20;;;;;;5007371;28;19967;-57
2022/03/30 03:49:47;;;;;;;;;;;18.50;53.10;;;;;;5005758;28;19920;-59
2022/03/30 03:52:13;;;;;;;;;;;18.50;53.00;;;;;;5007628;28;19913;-59
2022/03/30 03:54:38;;;;;;;;;;;18.50;53.00;;;;;;5007969;28;19925;-58
2022/03/30 03:57:04;;;;;;;;;;;18.50;52.90;;;;;;5008040;28;19921;-58
2022/03/30 03:59:29;;;;;;;;;;;18.50;52.90;;;;;;5007149;28;19917;-59
2022/03/30 04:01:55;;;;;;;;;;;18.40;52.90;;;;;;5007126;28;19930;-59
2022/03/30 04:04:20;;;;;;;;;;;18.50;52.90;;;;;;5006238;28;20298;-59
2022/03/30 04:06:46;;;;;;;;;;;18.50;52.90;;;;;;5006503;28;20598;-58
2022/03/30 04:09:11;;;;;;;;;;;18.50;52.90;;;;;;5006517;28;19913;-59
2022/03/30 04:11:37;;;;;;;;;;;18.50;52.80;;;;;;5007276;28;19920;-59
2022/03/30 04:14:02;;;;;;;;;;;18.50;52.80;;;;;;5007865;28;19920;-59
2022/03/30 04:16:28;;;;;;;;;;;18.50;52.80;;;;;;5006552;28;20418;-59
2022/03/30 04:18:53;;;;;;;;;;;18.50;52.70;;;;;;5006075;28;19936;-59
2022/03/30 04:21:19;;;;;;;;;;;18.50;52.70;;;;;;5006707;28;19924;-57
2022/03/30 04:23:44;;;;;;;;;;;18.50;52.70;;;;;;5006485;28;19975;-59
2022/03/30 04:26:10;;;;;;;;;;;18.50;52.70;;;;;;5006821;28;19914;-58
2022/03/30 04:28:40;;;;;;;;;;;18.50;52.70;;;;;;5006407;28;19976;-58
2022/03/30 04:31:09;;;;;;;;;;;18.40;52.90;;;;;;5007911;28;20474;-59
2022/03/30 04:33:34;;;;;;;;;;;18.40;53.30;;;;;;5006613;28;22743;-59
2022/03/30 04:36:00;;;;;;;;;;;18.40;53.40;;;;;;5006975;28;19920;-58
2022/03/30 04:38:25;;;;;;;;;;;18.40;53.50;;;;;;5006735;28;20423;-58
2022/03/30 04:40:51;;;;;;;;;;;18.40;53.60;;;;;;5006809;28;20008;-58
2022/03/30 04:43:16;;;;;;;;;;;18.40;53.80;;;;;;5006524;28;19924;-56
2022/03/30 04:45:42;;;;;;;;;;;18.30;53.90;;;;;;5004934;28;19914;-58
2022/03/30 04:48:07;;;;;;;;;;;18.30;54.20;;;;;;5002500;28;19920;-59
2022/03/30 04:50:33;;;;;;;;;;;18.20;55.00;;;;;;5001730;28;19918;-59
2022/03/30 04:52:58;;;;;;;;;;;18.30;55.40;;;;;;5000923;28;19934;-59
2022/03/30 04:55:24;;;;;;;;;;;18.50;55.00;;;;;;5001752;28;20302;-59
2022/03/30 04:57:49;;;;;;;;;;;18.60;54.60;;;;;;5009838;22;19936;-72
2022/03/30 05:00:15;;;;;;;;;;;18.70;54.40;;;;;;4968098;28;19918;-74
2022/03/30 05:02:40;;;;;;;;;;;18.70;54.10;;;;;;4985502;28;20346;-73
2022/03/30 05:05:08;;;;;;;;;;;18.80;53.90;;;;;;4972717;28;19937;-74
2022/03/30 05:07:33;;;;;;;;;;;18.80;53.70;;;;;;4962771;28;19957;-72
2022/03/30 05:09:59;;;;;;;;;;;18.80;53.60;;;;;;4967997;28;20424;-74
2022/03/30 05:12:24;;;;;;;;;;;18.90;53.50;;;;;;4973475;28;19921;-73
2022/03/30 05:14:50;;;;;;;;;;;18.90;53.40;;;;;;4949244;28;19922;-73
2022/03/30 05:17:15;;;;;;;;;;;18.80;53.40;;;;;;4960601;28;20283;-74
2022/03/30 05:19:40;;;;;;;;;;;18.80;53.40;;;;;;4968144;28;19921;-72
2022/03/30 05:22:06;;;;;;;;;;;18.80;53.50;;;;;;4961626;28;19925;-72
2022/03/30 05:24:31;;;;;;;;;;;18.80;53.70;;;;;;4965378;28;19940;-72
2022/03/30 05:26:57;;;;;;;;;;;18.80;54.10;;;;;;4969353;28;20024;-72
2022/03/30 05:29:22;;;;;;;;;;;18.80;54.10;;;;;;4965175;28;19913;-72
2022/03/30 05:31:48;;;;;;;;;;;18.70;54.10;;;;;;4961332;28;19925;-73
2022/03/30 05:34:13;;;;;;;;;;;18.70;54.10;;;;;;4964413;28;19914;-71
2022/03/30 05:36:39;;;;;;;;;;;18.70;53.90;;;;;;4968032;28;19927;-73
2022/03/30 05:39:04;;;;;;;;;;;18.80;53.80;;;;;;4984489;28;19945;-71
2022/03/30 05:41:30;;;;;;;;;;;18.80;53.80;;;;;;4963983;28;19922;-71
2022/03/30 05:43:55;;;;;;;;;;;18.70;53.80;;;;;;4969201;28;19965;-70
2022/03/30 05:46:21;;;;;;;;;;;18.70;53.70;;;;;;4988045;28;19918;-70
2022/03/30 05:48:47;;;;;;;;;;;18.70;53.50;;;;;;4968394;28;20439;-71
2022/03/30 05:51:12;;;;;;;;;;;18.70;53.30;;;;;;4949835;28;19921;-70
2022/03/30 05:53:38;;;;;;;;;;;18.70;53.30;;;;;;4966722;28;19913;-70
2022/03/30 05:56:04;;;;;;;;;;;18.70;53.50;;;;;;4988354;28;19914;-70
2022/03/30 05:58:29;;;;;;;;;;;18.70;53.40;;;;;;4972278;28;19925;-70
2022/03/30 06:00:55;;;;;;;;;;;18.60;53.30;;;;;;4948976;28;20538;-71
2022/03/30 06:03:21;;;;;;;;;;;18.60;53.40;;;;;;4961001;28;19918;-69
2022/03/30 06:05:46;;;;;;;;;;;18.60;53.50;;;;;;4983866;28;19913;-71
2022/03/30 06:08:12;;;;;;;;;;;18.60;53.60;;;;;;4973500;28;19969;-71
2022/03/30 06:10:37;;;;;;;;;;;18.50;53.70;;;;;;4947466;28;20001;-72
2022/03/30 06:13:03;;;;;;;;;;;18.50;53.70;;;;;;4956269;28;19992;-70
2022/03/30 06:15:28;;;;;;;;;;;18.50;53.70;;;;;;4966705;28;19914;-70
2022/03/30 06:17:54;;;;;;;;;;;18.60;53.60;;;;;;4959433;28;19914;-71
2022/03/30 06:20:21;;;;;;;;;;;18.50;53.60;;;;;;4947483;28;19925;-71
2022/03/30 06:22:46;;;;;;;;;;;18.50;53.60;;;;;;4933641;28;19918;-70
2022/03/30 06:25:12;;;;;;;;;;;18.50;53.60;;;;;;4964704;28;20379;-72
2022/03/30 06:27:38;;;;;;;;;;;18.50;53.60;;;;;;4968317;28;20028;-72
2022/03/30 06:30:03;;;;;;;;;;;18.50;53.70;;;;;;4967888;28;19914;-75
2022/03/30 06:32:29;;;;;;;;;;;18.40;53.60;;;;;;4965560;28;19914;-72
2022/03/30 06:34:54;;;;;;;;;;;18.40;53.60;;;;;;4966714;28;19914;-75
2022/03/30 06:37:20;;;;;;;;;;;18.40;53.60;;;;;;4933782;28;19922;-72
2022/03/30 06:39:45;;;;;;;;;;;18.40;53.60;;;;;;4984675;28;20402;-72
2022/03/30 06:42:11;;;;;;;;;;;18.40;53.60;;;;;;4967953;28;19918;-75
2022/03/30 06:44:37;;;;;;;;;;;18.40;53.50;;;;;;4950848;28;19953;-75
2022/03/30 06:47:02;;;;;;;;;;;18.40;53.50;;;;;;4948653;28;19953;-72
2022/03/30 06:49:28;;;;;;;;;;;18.40;53.60;;;;;;4964480;28;19945;-73
2022/03/30 06:51:53;;;;;;;;;;;18.40;53.50;;;;;;4986224;28;19914;-73
2022/03/30 06:54:19;;;;;;;;;;;18.40;53.50;;;;;;4971151;28;19918;-73
2022/03/30 06:56:45;;;;;;;;;;;18.40;53.60;;;;;;4965223;28;20320;-74
2022/03/30 06:59:13;;;;;;;;;;;18.30;53.50;;;;;;4966142;28;19914;-73
2022/03/30 07:01:38;;;;;;;;;;;18.30;53.40;;;;;;4966592;28;20439;-74
2022/03/30 07:04:04;;;;;;;;;;;18.30;53.40;;;;;;4977129;28;19941;-74
2022/03/30 07:06:29;;;;;;;;;;;18.30;53.40;;;;;;4985865;28;20486;-73
2022/03/30 07:11:39;;;;;;;;;;;18.30;53.40;;;;;;4959496;28;19983;-73
2022/03/30 07:14:04;;;;;;;;;;;18.30;53.40;;;;;;4974953;28;20372;-72
2022/03/30 07:16:30;;;;;;;;;;;18.30;53.30;;;;;;4968107;28;19937;-73
2022/03/30 07:18:56;;;;;;;;;;;18.30;53.40;;;;;;4960514;28;20284;-73
2022/03/30 07:21:21;;;;;;;;;;;18.30;53.30;;;;;;4965927;28;19930;-73
2022/03/30 07:23:47;;;;;;;;;;;18.30;53.30;;;;;;4973661;28;19914;-72
2022/03/30 07:26:12;;;;;;;;;;;18.30;53.40;;;;;;4973215;28;19969;-71
2022/03/30 07:28:38;;;;;;;;;;;18.30;53.80;;;;;;4969087;28;20013;-71
2022/03/30 07:31:03;;;;;;;;;;;18.30;54.00;;;;;;4953422;28;19918;-73
2022/03/30 07:33:29;;;;;;;;;;;18.20;54.10;;;;;;4954482;28;19918;-74
2022/03/30 07:35:55;;;;;;;;;;;18.30;54.40;;;;;;4990586;28;19920;-73
2022/03/30 07:38:20;;;;;;;;;;;18.30;54.40;;;;;;4989451;28;19914;-71
2022/03/30 07:40:46;;;;;;;;;;;18.30;54.50;;;;;;4969869;28;19981;-73
2022/03/30 07:43:12;;;;;;;;;;;18.30;54.60;;;;;;4955772;28;19918;-73
2022/03/30 07:45:38;;;;;;;;;;;18.30;54.60;;;;;;4992800;28;19913;-73
2022/03/30 07:48:04;;;;;;;;;;;18.30;54.60;;;;;;4991647;28;19941;-73
2022/03/30 07:50:29;;;;;;;;;;;18.30;54.70;;;;;;4970864;28;19918;-72
2022/03/30 07:52:55;;;;;;;;;;;18.30;54.60;;;;;;4969566;28;19913;-73
2022/03/30 07:55:20;;;;;;;;;;;18.30;54.60;;;;;;4955611;28;19988;-74
2022/03/30 07:57:46;;;;;;;;;;;18.30;54.50;;;;;;4949638;28;19922;-73
2022/03/30 08:00:17;;;;;;;;;;;18.30;54.40;;;;;;4962532;28;19922;-73
2022/03/30 08:02:44;;;;;;;;;;;18.30;54.50;;;;;;4970009;28;20371;-73
2022/03/30 08:05:11;;;;;;;;;;;18.30;54.70;;;;;;4958503;28;20290;-71
2022/03/30 08:07:37;;;;;;;;;;;18.20;55.30;;;;;;4950866;28;19950;-73
2022/03/30 08:10:02;;;;;;;;;;;18.30;55.00;;;;;;4959465;28;20013;-71
2022/03/30 08:12:28;;;;;;;;;;;18.20;54.80;;;;;;4969304;28;20009;-74
2022/03/30 08:14:54;;;;;;;;;;;18.30;54.80;;;;;;4961482;28;19920;-74
2022/03/30 08:17:20;;;;;;;;;;;18.30;54.80;;;;;;4949784;28;19918;-73
2022/03/30 08:19:45;;;;;;;;;;;18.30;54.70;;;;;;4973368;28;19980;-74
2022/03/30 08:22:26;;;;;;;;;;;18.40;54.60;;;;;;4968655;28;19924;-72
2022/03/30 08:24:54;;;;;;;;;;;18.30;54.40;;;;;;4980290;28;19914;-72
2022/03/30 08:27:22;;;;;;;;;;;18.40;54.60;;;;;;4966863;28;20399;-73
2022/03/30 08:29:47;;;;;;;;;;;18.40;54.50;;;;;;4953919;28;19914;-73
2022/03/30 08:32:13;;;;;;;;;;;18.40;54.40;;;;;;4986162;28;19914;-74
2022/03/30 08:34:39;;;;;;;;;;;18.40;54.30;;;;;;4965235;28;19949;-73
2022/03/30 08:37:04;;;;;;;;;;;18.40;54.20;;;;;;4950046;28;20434;-73
2022/03/30 08:39:30;;;;;;;;;;;18.50;54.20;;;;;;4950207;28;19914;-73
2022/03/30 08:41:55;;;;;;;;;;;18.50;54.10;;;;;;4986161;28;19918;-74
2022/03/30 08:44:21;;;;;;;;;;;18.50;54.00;;;;;;4968593;28;19914;-73
2022/03/30 08:46:47;;;;;;;;;;;18.40;54.00;;;;;;4949642;28;19918;-71
2022/03/30 08:49:13;;;;;;;;;;;18.50;54.00;;;;;;4949147;28;20266;-73
2022/03/30 08:51:39;;;;;;;;;;;18.40;54.00;;;;;;4949285;28;20695;-73
2022/03/30 08:54:05;;;;;;;;;;;18.40;54.00;;;;;;4949650;28;19918;-73
2022/03/30 08:56:31;;;;;;;;;;;18.40;53.90;;;;;;4981505;28;20012;-74
2022/03/30 08:59:06;;;;;;;;;;;18.50;53.90;;;;;;4968422;28;19914;-75
2022/03/30 09:01:33;;;;;;;;;;;18.50;53.80;;;;;;4952873;28;19918;-75
2022/03/30 09:03:58;;;;;;;;;;;18.50;53.70;;;;;;4948818;28;20615;-73
2022/03/30 09:06:27;;;;;;;;;;;18.50;53.70;;;;;;4978897;28;19918;-74
2022/03/30 09:08:55;;;;;;;;;;;18.50;53.70;;;;;;4958478;28;20394;-74
2022/03/30 09:11:21;;;;;;;;;;;18.50;53.70;;;;;;4940172;28;20005;-74
2022/03/30 09:13:59;;;;;;;;;;;18.50;53.70;;;;;;4948862;28;19941;-73
2022/03/30 09:16:24;;;;;;;;;;;18.50;53.60;;;;;;4977082;28;19921;-73
2022/03/30 09:19:02;;;;;;;;;;;18.50;53.60;;;;;;4984820;28;19918;-74
2022/03/30 09:21:41;;;;;;;;;;;18.50;53.40;;;;;;4956017;28;19969;-73
2022/03/30 09:24:06;;;;;;;;;;;18.50;53.40;;;;;;4965837;28;20677;-73
2022/03/30 09:26:32;;;;;;;;;;;18.60;53.30;;;;;;4959632;28;19921;-73
2022/03/30 09:28:57;;;;;;;;;;;18.60;53.40;;;;;;4967455;28;20137;-73
2022/03/30 09:31:23;;;;;;;;;;;18.60;53.40;;;;;;4975188;28;19914;-73
2022/03/30 09:33:49;;;;;;;;;;;18.60;53.40;;;;;;4948451;28;20369;-73
2022/03/30 09:36:27;;;;;;;;;;;18.50;53.30;;;;;;4972994;28;20469;-73
2022/03/30 09:38:53;;;;;;;;;;;18.60;53.30;;;;;;4984520;28;20515;-73
2022/03/30 09:41:18;;;;;;;;;;;18.50;53.40;;;;;;4959320;28;19925;-73
2022/03/30 09:43:44;;;;;;;;;;;18.50;53.50;;;;;;4964615;28;19941;-72
2022/03/30 09:46:11;;;;;;;;;;;18.50;53.60;;;;;;4949791;28;19914;-73
2022/03/30 09:48:48;;;;;;;;;;;18.50;53.50;;;;;;4947837;28;19914;-71
2022/03/30 09:51:14;;;;;;;;;;;18.60;53.50;;;;;;4970645;28;19921;-73
2022/03/30 09:53:39;;;;;;;;;;;18.50;53.40;;;;;;4984067;28;19918;-73
2022/03/30 09:56:09;;;;;;;;;;;18.50;53.30;;;;;;4980668;28;19914;-72
2022/03/30 09:58:35;;;;;;;;;;;18.60;53.40;;;;;;4947668;28;19969;-72
2022/03/30 10:01:01;;;;;;;;;;;18.60;53.30;;;;;;4950270;28;19965;-73
2022/03/30 10:03:36;;;;;;;;;;;18.50;53.40;;;;;;4984281;28;20479;-72
2022/03/30 10:06:01;;;;;;;;;;;18.60;53.40;;;;;;4964775;28;19922;-74
2022/03/30 10:08:26;;;;;;;;;;;18.60;53.40;;;;;;4947843;28;20610;-73
2022/03/30 10:10:52;;;;;;;;;;;18.50;53.30;;;;;;4947886;28;19956;-73
2022/03/30 10:13:17;;;;;;;;;;;18.60;53.30;;;;;;4951311;28;19918;-73
2022/03/30 10:15:43;;;;;;;;;;;18.50;53.30;;;;;;4966751;28;19920;-72
2022/03/30 10:18:08;;;;;;;;;;;18.50;53.30;;;;;;4967050;28;19914;-72
2022/03/30 10:20:34;;;;;;;;;;;18.50;53.40;;;;;;4931123;28;20543;-73
2022/03/30 10:23:13;;;;;;;;;;;18.50;53.50;;;;;;4963168;28;19929;-73
2022/03/30 10:25:56;;;;;;;;;;;18.60;53.40;;;;;;4941388;28;19983;-73
2022/03/30 10:28:45;;;;;;;;;;;18.60;53.30;;;;;;4948414;28;20539;-72
2022/03/30 10:31:10;;;;;;;;;;;18.60;53.30;;;;;;4911972;28;19922;-73
2022/03/30 10:33:36;;;;;;;;;;;18.50;53.30;;;;;;4984612;28;20350;-73
2022/03/30 10:36:21;;;;;;;;;;;18.50;53.20;;;;;;4984278;28;19921;-72
2022/03/30 10:39:24;;;;;;;;;;;18.60;53.30;;;;;;4944712;29;19915;-73
2022/03/30 10:41:50;;;;;;;;;;;18.50;53.30;;;;;;4931622;28;19922;-72
2022/03/30 10:44:38;;;;;;;;;;;18.60;53.30;;;;;;4966420;28;19914;-72
2022/03/30 10:47:07;;;;;;;;;;;18.60;53.20;;;;;;4978720;28;19923;-73
2022/03/30 10:49:42;;;;;;;;;;;18.60;53.20;;;;;;4964669;28;20631;-72
2022/03/30 10:52:24;;;;;;;;;;;18.60;53.20;;;;;;4926711;28;19913;-72
2022/03/30 10:54:55;;;;;;;;;;;18.60;53.20;;;;;;4982990;28;20448;-73
2022/03/30 10:57:39;;;;;;;;;;;18.60;53.20;;;;;;4945075;28;19976;-72
2022/03/30 11:00:07;;;;;;;;;;;18.60;53.20;;;;;;4968780;28;19914;-73
2022/03/30 11:02:42;;;;;;;;;;;18.50;53.20;;;;;;4957517;28;19925;-72
2022/03/30 11:05:11;;;;;;;;;;;18.50;53.40;;;;;;4970352;28;19918;-73
2022/03/30 11:07:37;;;;;;;;;;;18.50;53.40;;;;;;4979514;28;19922;-73
2022/03/30 11:10:15;;;;;;;;;;;18.50;53.20;;;;;;4951115;28;19914;-73
2022/03/30 11:13:01;;;;;;;;;;;18.50;53.40;;;;;;4972669;28;19968;-75
2022/03/30 11:15:26;;;;;;;;;;;18.50;53.40;;;;;;4970528;28;20003;-72
2022/03/30 11:17:52;;;;;;;;;;;18.50;53.40;;;;;;4979646;28;19957;-72
2022/03/30 11:20:19;;;;;;;;;;;18.50;53.40;;;;;;4950386;28;19925;-74
2022/03/30 11:22:46;;;;;;;;;;;18.60;53.40;;;;;;4956540;28;19918;-73
2022/03/30 11:25:23;;;;;;;;;;;18.50;53.20;;;;;;4970126;28;19914;-73
2022/03/30 11:27:57;;;;;;;;;;;18.50;53.40;;;;;;4981460;28;19918;-73
2022/03/30 11:30:23;;;;;;;;;;;18.50;53.40;;;;;;4967798;28;20526;-72
2022/03/30 11:32:49;;;;;;;;;;;18.50;53.40;;;;;;4973338;28;20063;-73
2022/03/30 11:35:17;;;;;;;;;;;18.50;53.40;;;;;;4987630;28;19949;-73
2022/03/30 11:37:47;;;;;;;;;;;18.50;53.40;;;;;;4967376;28;19921;-72
2022/03/30 11:40:13;;;;;;;;;;;18.50;53.60;;;;;;4936145;28;20058;-73
2022/03/30 11:42:40;;;;;;;;;;;18.50;53.40;;;;;;4954141;28;20635;-74
2022/03/30 11:45:21;;;;;;;;;;;18.50;53.40;;;;;;4971603;28;19914;-72
2022/03/30 11:47:47;;;;;;;;;;;18.50;53.40;;;;;;4967722;28;20584;-74
2022/03/30 11:50:13;;;;;;;;;;;18.50;53.40;;;;;;4967913;28;20005;-71
2022/03/30 11:52:38;;;;;;;;;;;18.50;53.40;;;;;;4951635;28;19914;-72
2022/03/30 11:55:04;;;;;;;;;;;18.50;53.40;;;;;;4987228;28;19964;-72
2022/03/30 11:57:29;;;;;;;;;;;18.50;53.40;;;;;;4987171;28;20015;-73
2022/03/30 11:59:55;;;;;;;;;;;18.50;53.30;;;;;;4951523;28;19921;-74
2022/03/30 12:02:24;;;;;;;;;;;18.50;53.60;;;;;;4967830;28;20489;-73
2022/03/30 12:04:49;;;;;;;;;;;18.50;53.70;;;;;;4967620;28;19921;-71
2022/03/30 12:07:15;;;;;;;;;;;18.50;53.80;;;;;;4969307;28;19913;-73
2022/03/30 12:09:44;;;;;;;;;;;18.50;53.80;;;;;;4970646;28;19925;-73
2022/03/30 12:12:11;;;;;;;;;;;18.40;53.80;;;;;;4967408;28;19921;-73
2022/03/30 12:14:36;;;;;;;;;;;18.40;53.80;;;;;;4981694;28;20342;-73
2022/03/30 12:17:04;;;;;;;;;;;18.30;54.00;;;;;;4986092;28;20394;-73
2022/03/30 12:19:29;;;;;;;;;;;18.30;54.30;;;;;;4974355;28;19914;-71
2022/03/30 12:21:55;;;;;;;;;;;18.20;54.10;;;;;;4967074;28;19941;-72
2022/03/30 12:24:22;;;;;;;;;;;18.20;54.20;;;;;;4960106;28;19984;-72
2022/03/30 12:26:48;;;;;;;;;;;18.20;54.20;;;;;;4969632;28;19921;-73
2022/03/30 12:29:17;;;;;;;;;;;18.20;54.20;;;;;;4960167;28;19914;-72
2022/03/30 12:31:53;;;;;;;;;;;18.10;54.30;;;;;;4949939;28;19914;-73
2022/03/30 12:34:19;;;;;;;;;;;18.10;54.50;;;;;;4957675;28;19924;-73
2022/03/30 12:36:46;;;;;;;;;;;18.00;54.40;;;;;;4986121;28;19914;-73
2022/03/30 12:39:15;;;;;;;;;;;18.00;54.40;;;;;;4961601;28;20012;-71
2022/03/30 12:41:40;;;;;;;;;;;18.00;54.70;;;;;;4966821;28;19925;-73
2022/03/30 12:44:06;;;;;;;;;;;18.00;54.60;;;;;;4949683;28;19914;-73
2022/03/30 12:46:31;;;;;;;;;;;18.00;54.70;;;;;;4933637;28;19977;-74
2022/03/30 12:49:06;;;;;;;;;;;18.00;54.60;;;;;;4950049;28;19921;-74
2022/03/30 12:51:34;;;;;;;;;;;18.10;54.70;;;;;;4967041;28;20071;-72
2022/03/30 12:54:01;;;;;;;;;;;18.10;54.80;;;;;;4953999;28;22391;-73
2022/03/30 12:56:27;;;;;;;;;;;18.10;54.80;;;;;;4968762;28;19927;-73
2022/03/30 12:58:53;;;;;;;;;;;18.10;54.70;;;;;;4964318;28;19921;-71
2022/03/30 13:01:28;;;;;;;;;;;18.10;54.50;;;;;;4937321;28;20009;-72
2022/03/30 13:03:54;;;;;;;;;;;18.10;54.50;;;;;;4965185;28;19972;-73
2022/03/30 13:06:20;;;;;;;;;;;18.20;54.40;;;;;;4967645;28;19918;-71
2022/03/30 13:09:04;;;;;;;;;;;18.20;54.40;;;;;;4966683;28;19914;-72
2022/03/30 13:11:29;;;;;;;;;;;18.20;54.50;;;;;;4949474;29;19919;-73
2022/03/30 13:13:56;;;;;;;;;;;18.20;54.40;;;;;;4933254;28;19964;-72
2022/03/30 13:16:22;;;;;;;;;;;18.20;54.30;;;;;;4987739;28;19922;-74
2022/03/30 13:19:04;;;;;;;;;;;18.20;54.40;;;;;;4969091;28;19914;-73
2022/03/30 13:21:40;;;;;;;;;;;18.20;54.30;;;;;;4936047;28;20549;-72
2022/03/30 13:24:09;;;;;;;;;;;18.20;54.30;;;;;;4948155;28;19940;-71
2022/03/30 13:26:35;;;;;;;;;;;18.20;54.40;;;;;;4986489;28;19917;-72
2022/03/30 13:29:01;;;;;;;;;;;18.20;54.40;;;;;;4969237;28;19921;-72
2022/03/30 13:31:26;;;;;;;;;;;18.20;54.20;;;;;;4949964;28;19918;-72
2022/03/30 13:33:52;;;;;;;;;;;18.30;54.80;;;;;;4948388;28;20547;-73
2022/03/30 13:36:18;;;;;;;;;;;18.20;54.10;;;;;;4965174;28;20012;-70
2022/03/30 13:38:44;;;;;;;;;;;18.20;54.00;;;;;;4968058;28;20060;-74
2022/03/30 13:41:09;;;;;;;;;;;18.20;54.00;;;;;;4953321;28;20438;-72
2022/03/30 13:43:35;;;;;;;;;;;18.20;54.20;;;;;;4965717;28;19918;-73
2022/03/30 13:46:00;;;;;;;;;;;18.20;54.10;;;;;;4945463;28;19913;-73
2022/03/30 13:48:26;;;;;;;;;;;18.30;54.20;;;;;;4984956;28;19914;-71
2022/03/30 13:50:52;;;;;;;;;;;18.20;54.00;;;;;;4956861;28;19929;-72
2022/03/30 13:53:17;;;;;;;;;;;18.30;54.00;;;;;;4948771;28;19920;-71
2022/03/30 13:55:42;;;;;;;;;;;18.30;53.90;;;;;;4957357;28;19918;-72
2022/03/30 13:58:08;;;;;;;;;;;18.30;53.80;;;;;;4984788;28;19925;-74
2022/03/30 14:00:34;;;;;;;;;;;18.30;53.80;;;;;;4958867;28;19914;-72
2022/03/30 14:03:00;;;;;;;;;;;18.30;53.60;;;;;;4965628;28;19953;-72
2022/03/30 14:05:26;;;;;;;;;;;18.30;53.60;;;;;;4966391;28;19918;-74
2022/03/30 14:07:54;;;;;;;;;;;18.30;53.60;;;;;;4947372;28;19914;-71
2022/03/30 14:10:21;;;;;;;;;;;18.30;53.60;;;;;;4968942;28;20390;-73
2022/03/30 14:12:47;;;;;;;;;;;18.30;53.50;;;;;;4967461;28;19948;-73
2022/03/30 14:15:12;;;;;;;;;;;18.30;53.50;;;;;;4981919;28;19953;-72
2022/03/30 14:17:37;;;;;;;;;;;18.30;53.40;;;;;;4965222;28;20348;-73
2022/03/30 14:20:04;;;;;;;;;;;18.30;53.40;;;;;;4948149;28;19936;-72
2022/03/30 14:22:29;;;;;;;;;;;18.30;53.50;;;;;;4985283;28;19921;-72